createdAt,value
2018-03-29T00:00:14.525Z,98.50
2018-03-29T00:02:18.126Z,97.40
2018-03-29T00:04:21.549Z,97.70
2018-03-29T00:06:24.130Z,97.70
2018-03-29T00:08:26.761Z,97.80
2018-03-29T00:10:29.349Z,97.80
2018-03-29T00:12:32.689Z,97.40
2018-03-29T00:14:35.301Z,97.40
2018-03-29T00:16:37.918Z,97.10
2018-03-29T00:18:40.529Z,98.50
2018-03-29T00:20:43.135Z,97.10
2018-03-29T00:22:46.585Z,96.70
2018-03-29T00:24:49.955Z,95.50
2018-03-29T00:26:52.533Z,95.50
2018-03-29T00:28:55.113Z,95.60
2018-03-29T00:30:57.735Z,94.80
2018-03-29T00:33:00.310Z,94.50
2018-03-29T00:35:03.702Z,95.10
2018-03-29T00:37:07.060Z,94.60
2018-03-29T00:39:09.660Z,94.30
2018-03-29T00:41:12.310Z,94.40
2018-03-29T00:43:14.901Z,93.80
2018-03-29T00:45:17.498Z,93.60
2018-03-29T00:47:20.885Z,93.70
2018-03-29T00:49:23.484Z,93.80
2018-03-29T00:51:26.083Z,94.20
2018-03-29T00:53:47.392Z,94.00
2018-03-29T00:55:51.662Z,93.40
2018-03-29T00:57:55.145Z,93.70
2018-03-29T00:59:57.742Z,93.70
2018-03-29T01:02:00.373Z,94.00
2018-03-29T01:04:02.951Z,94.10
2018-03-29T01:06:05.549Z,93.50
2018-03-29T01:08:08.114Z,93.40
2018-03-29T01:10:10.703Z,94.70
2018-03-29T01:12:14.383Z,92.50
2018-03-29T01:14:16.965Z,92.50
2018-03-29T01:16:19.544Z,93.50
2018-03-29T01:18:22.142Z,93.20
2018-03-29T01:20:24.722Z,93.30
2018-03-29T01:22:27.336Z,94.10
2018-03-29T01:24:29.923Z,93.70
2018-03-29T01:26:32.833Z,92.60
2018-03-29T01:28:36.240Z,92.20
2018-03-29T01:30:38.823Z,92.20
2018-03-29T01:32:41.477Z,92.70
2018-03-29T01:34:44.839Z,92.80
2018-03-29T01:36:47.438Z,92.80
2018-03-29T01:38:50.819Z,92.40
2018-03-29T01:40:53.405Z,92.30
2018-03-29T01:42:56.778Z,93.00
2018-03-29T01:44:59.369Z,93.00
2018-03-29T01:47:02.728Z,92.70
2018-03-29T01:49:05.419Z,92.70
2018-03-29T01:51:08.066Z,91.90
2018-03-29T01:53:10.665Z,92.40
2018-03-29T01:55:13.273Z,91.90
2018-03-29T01:57:16.630Z,92.40
2018-03-29T01:59:19.238Z,92.40
2018-03-29T02:01:22.638Z,92.50
2018-03-29T02:03:25.213Z,92.50
2018-03-29T02:05:27.805Z,92.80
2018-03-29T02:07:30.394Z,92.30
2018-03-29T02:09:33.087Z,93.40
2018-03-29T02:11:35.689Z,93.50
2018-03-29T02:13:39.033Z,92.50
2018-03-29T02:15:41.657Z,92.50
2018-03-29T02:17:45.022Z,92.90
2018-03-29T02:19:47.643Z,92.90
2018-03-29T02:21:50.238Z,92.50
2018-03-29T02:23:52.830Z,92.50
2018-03-29T02:25:55.442Z,92.00
2018-03-29T02:27:58.801Z,91.90
2018-03-29T02:30:01.410Z,91.80
2018-03-29T02:32:04.770Z,91.60
2018-03-29T02:34:07.356Z,91.60
2018-03-29T02:36:10.018Z,91.80
2018-03-29T02:38:13.372Z,90.40
2018-03-29T02:40:15.955Z,90.40
2018-03-29T02:42:18.574Z,90.80
2018-03-29T02:44:21.174Z,90.90
2018-03-29T02:46:24.546Z,90.50
2018-03-29T02:48:27.210Z,90.40
2018-03-29T02:50:29.784Z,90.80
2018-03-29T02:52:32.392Z,90.10
2018-03-29T02:54:35.742Z,89.70
2018-03-29T02:56:38.363Z,89.70
2018-03-29T02:58:41.716Z,89.60
2018-03-29T03:00:44.313Z,89.60
2018-03-29T03:02:46.935Z,90.00
2018-03-29T03:04:49.523Z,88.40
2018-03-29T03:06:52.259Z,88.90
2018-03-29T03:08:55.639Z,89.50
2018-03-29T03:10:58.990Z,90.00
2018-03-29T03:13:01.614Z,90.00
2018-03-29T03:15:04.985Z,88.30
2018-03-29T03:17:08.395Z,88.70
2018-03-29T03:19:11.754Z,89.10
2018-03-29T03:21:14.386Z,89.10
2018-03-29T03:23:16.989Z,90.30
2018-03-29T03:25:19.577Z,87.80
2018-03-29T03:27:22.178Z,89.80
2018-03-29T03:29:25.551Z,91.00
2018-03-29T03:31:28.130Z,90.90
2018-03-29T03:33:30.738Z,91.20
2018-03-29T03:35:33.314Z,91.60
2018-03-29T03:37:36.962Z,90.70
2018-03-29T03:39:39.561Z,90.70
2018-03-29T03:41:42.917Z,90.10
2018-03-29T03:43:45.513Z,90.10
2018-03-29T03:45:48.174Z,86.70
2018-03-29T03:47:50.778Z,88.20
2018-03-29T03:49:54.140Z,88.70
2018-03-29T03:51:56.758Z,88.70
2018-03-29T03:54:00.126Z,90.00
2018-03-29T03:56:02.694Z,89.90
2018-03-29T03:58:05.280Z,90.50
2018-03-29T04:00:08.662Z,88.40
2018-03-29T04:02:11.245Z,88.30
2018-03-29T04:04:14.736Z,88.00
2018-03-29T04:06:17.317Z,87.40
2018-03-29T04:08:20.758Z,89.70
2018-03-29T04:10:23.400Z,88.90
2018-03-29T04:12:26.775Z,88.20
2018-03-29T04:14:29.377Z,88.10
2018-03-29T04:16:31.982Z,90.10
2018-03-29T04:18:34.577Z,88.10
2018-03-29T04:20:37.187Z,88.50
2018-03-29T04:22:40.555Z,88.80
2018-03-29T04:24:43.213Z,88.80
2018-03-29T04:26:45.858Z,89.70
2018-03-29T04:28:48.460Z,88.30
2018-03-29T04:30:51.054Z,89.30
2018-03-29T04:32:53.698Z,90.00
2018-03-29T04:34:56.321Z,88.80
2018-03-29T04:36:59.669Z,87.10
2018-03-29T04:39:02.418Z,87.10
2018-03-29T04:41:05.022Z,86.50
2018-03-29T04:43:07.673Z,87.80
2018-03-29T04:45:10.279Z,87.10
2018-03-29T04:47:13.745Z,87.60
2018-03-29T04:49:16.404Z,87.50
2018-03-29T04:51:18.966Z,87.20
2018-03-29T04:53:22.316Z,87.60
2018-03-29T04:55:24.924Z,87.60
2018-03-29T04:57:28.305Z,87.20
2018-03-29T04:59:30.903Z,87.20
2018-03-29T05:01:34.281Z,87.80
2018-03-29T05:03:37.946Z,89.00
2018-03-29T05:05:40.679Z,88.90
2018-03-29T05:07:43.261Z,88.60
2018-03-29T05:09:45.842Z,89.00
2018-03-29T05:11:48.444Z,89.30
2018-03-29T05:13:51.024Z,89.00
2018-03-29T05:15:54.494Z,89.70
2018-03-29T05:17:57.107Z,90.60
2018-03-29T05:19:59.738Z,90.80
2018-03-29T05:22:02.378Z,91.60
2018-03-29T05:24:05.794Z,92.00
2018-03-29T05:26:08.520Z,91.90
2018-03-29T05:28:11.168Z,92.20
2018-03-29T05:30:13.771Z,91.60
2018-03-29T05:32:16.427Z,91.90
2018-03-29T05:34:19.014Z,91.90
2018-03-29T05:36:21.608Z,92.50
2018-03-29T05:38:24.228Z,92.60
2018-03-29T05:40:26.809Z,92.60
2018-03-29T05:42:29.421Z,92.40
2018-03-29T05:44:32.036Z,91.80
2018-03-29T05:46:34.643Z,92.20
2018-03-29T05:48:37.284Z,92.50
2018-03-29T05:50:39.906Z,92.70
2018-03-29T05:52:42.490Z,92.50
2018-03-29T05:54:45.105Z,92.00
2018-03-29T05:56:47.703Z,92.20
2018-03-29T05:58:50.326Z,92.20
2018-03-29T06:00:52.922Z,92.80
2018-03-29T06:02:56.274Z,93.30
2018-03-29T06:04:58.894Z,93.30
2018-03-29T06:07:01.526Z,93.00
2018-03-29T06:09:04.124Z,92.20
2018-03-29T06:11:07.464Z,92.20
2018-03-29T06:13:10.053Z,92.20
2018-03-29T06:15:15.614Z,92.50
2018-03-29T06:17:25.646Z,90.90
2018-03-29T06:19:28.305Z,90.90
2018-03-29T06:21:30.905Z,91.60
2018-03-29T06:23:33.485Z,91.40
2018-03-29T06:25:36.138Z,90.70
2018-03-29T06:27:38.801Z,91.30
2018-03-29T06:29:41.413Z,88.90
2018-03-29T06:31:43.985Z,90.70
2018-03-29T06:33:46.578Z,88.80
2018-03-29T06:35:49.971Z,87.70
2018-03-29T06:37:53.336Z,87.10
2018-03-29T06:39:55.958Z,87.10
2018-03-29T06:41:59.354Z,84.30
2018-03-29T06:44:01.945Z,84.30
2018-03-29T06:46:04.542Z,84.60
2018-03-29T06:48:07.910Z,83.70
2018-03-29T06:50:10.504Z,83.70
2018-03-29T06:52:13.873Z,83.30
2018-03-29T06:54:16.450Z,82.70
2018-03-29T06:56:19.191Z,82.90
2018-03-29T06:58:22.913Z,81.90
2018-03-29T07:00:25.642Z,81.90
2018-03-29T07:02:28.413Z,82.70
2018-03-29T07:04:31.178Z,81.10
2018-03-29T07:06:33.779Z,78.80
2018-03-29T07:08:36.418Z,79.90
2018-03-29T07:10:39.006Z,80.90
2018-03-29T07:12:41.663Z,80.30
2018-03-29T07:14:44.262Z,81.10
2018-03-29T07:16:46.850Z,77.90
2018-03-29T07:18:49.454Z,78.60
2018-03-29T07:20:52.058Z,78.50
2018-03-29T07:22:54.778Z,77.90
2018-03-29T07:24:57.366Z,78.80
2018-03-29T07:26:59.948Z,77.60
2018-03-29T07:29:02.541Z,78.00
2018-03-29T07:31:05.130Z,78.40
2018-03-29T07:33:07.709Z,78.50
2018-03-29T07:35:10.330Z,79.40
2018-03-29T07:37:12.913Z,79.60
2018-03-29T07:39:15.510Z,79.90
2018-03-29T07:41:18.101Z,79.80
2018-03-29T07:43:20.710Z,79.90
2018-03-29T07:45:23.308Z,79.60
2018-03-29T07:47:26.650Z,78.40
2018-03-29T07:49:29.242Z,78.40
2018-03-29T07:51:31.864Z,78.60
2018-03-29T07:53:35.222Z,78.60
2018-03-29T07:55:38.587Z,78.80
2018-03-29T07:57:41.168Z,78.80
2018-03-29T08:01:53.514Z,78.20
2018-03-29T08:03:56.100Z,78.20
2018-03-29T08:05:58.790Z,77.90
2018-03-29T08:08:01.373Z,78.30
2018-03-29T08:10:03.938Z,79.60
2018-03-29T08:12:06.550Z,78.30
2018-03-29T08:14:09.158Z,80.20
2018-03-29T08:16:11.761Z,78.00
2018-03-29T08:18:15.142Z,75.60
2018-03-29T08:20:18.762Z,75.40
2018-03-29T08:22:21.372Z,75.50
2018-03-29T08:24:24.049Z,75.20
2018-03-29T08:26:26.642Z,76.10
2018-03-29T08:28:29.237Z,76.10
2018-03-29T08:30:31.841Z,75.00
2018-03-29T08:32:34.453Z,75.00
2018-03-29T08:34:37.061Z,74.50
2018-03-29T08:36:40.415Z,76.20
2018-03-29T08:38:43.045Z,76.20
2018-03-29T08:40:45.647Z,73.60
2018-03-29T08:42:48.282Z,73.40
2018-03-29T08:44:51.710Z,74.20
2018-03-29T08:46:54.285Z,74.20
2018-03-29T08:48:56.916Z,76.60
2018-03-29T08:51:00.289Z,75.10
2018-03-29T08:53:02.866Z,74.90
2018-03-29T08:55:05.477Z,73.90
2018-03-29T08:57:08.213Z,73.80
2018-03-29T08:59:10.895Z,74.50
2018-03-29T09:01:13.562Z,74.20
2018-03-29T09:03:16.154Z,75.90
2018-03-29T09:05:18.753Z,76.20
2018-03-29T09:07:21.338Z,74.50
2018-03-29T09:09:23.951Z,72.50
2018-03-29T09:11:27.378Z,72.20
2018-03-29T09:13:30.823Z,72.20
2018-03-29T09:15:33.441Z,72.20
2018-03-29T09:17:36.793Z,71.20
2018-03-29T09:19:39.435Z,71.20
2018-03-29T09:21:42.036Z,71.00
2018-03-29T09:23:44.648Z,70.20
2018-03-29T09:25:47.274Z,69.10
2018-03-29T09:27:49.853Z,69.90
2018-03-29T09:29:52.446Z,69.10
2018-03-29T09:31:55.860Z,69.30
2018-03-29T09:33:59.208Z,70.20
2018-03-29T09:36:01.825Z,70.10
2018-03-29T09:38:04.405Z,71.20
2018-03-29T09:40:06.995Z,71.40
2018-03-29T09:42:10.369Z,71.40
2018-03-29T09:44:12.969Z,71.30
2018-03-29T09:46:15.557Z,69.60
2018-03-29T09:48:18.303Z,70.50
2018-03-29T09:50:20.896Z,68.90
2018-03-29T09:52:23.484Z,70.00
2018-03-29T09:54:26.276Z,68.20
2018-03-29T09:56:28.874Z,67.40
2018-03-29T09:58:31.489Z,65.70
2018-03-29T10:00:34.981Z,67.60
2018-03-29T10:02:38.448Z,66.70
2018-03-29T10:04:41.062Z,66.70
2018-03-29T10:06:47.330Z,65.80
2018-03-29T10:08:49.942Z,65.80
2018-03-29T10:10:52.551Z,65.10
2018-03-29T10:12:55.161Z,67.10
2018-03-29T10:14:57.924Z,67.00
2018-03-29T10:17:00.570Z,65.50
2018-03-29T10:19:03.326Z,63.80
2018-03-29T10:21:06.694Z,64.90
2018-03-29T10:23:09.298Z,64.90
2018-03-29T10:25:11.930Z,65.30
2018-03-29T10:27:14.517Z,66.40
2018-03-29T10:29:17.126Z,66.10
2018-03-29T10:31:19.757Z,62.90
2018-03-29T10:33:22.358Z,63.40
2018-03-29T10:35:24.992Z,61.20
2018-03-29T10:37:27.601Z,60.60
2018-03-29T10:39:30.209Z,62.60
2018-03-29T10:41:32.804Z,62.40
2018-03-29T10:43:36.152Z,64.20
2018-03-29T10:45:38.769Z,64.10
2018-03-29T10:47:42.140Z,60.70
2018-03-29T10:49:44.737Z,60.60
2018-03-29T10:51:48.110Z,61.60
2018-03-29T10:53:50.762Z,61.60
2018-03-29T10:55:53.377Z,62.50
2018-03-29T10:57:56.746Z,61.90
2018-03-29T10:59:59.328Z,61.90
2018-03-29T11:02:01.951Z,60.80
2018-03-29T11:04:04.584Z,62.70
2018-03-29T11:08:16.873Z,62.40
2018-03-29T11:10:19.465Z,62.00
2018-03-29T11:12:22.080Z,59.10
2018-03-29T11:14:24.677Z,60.20
2018-03-29T11:16:27.281Z,60.50
2018-03-29T11:18:29.869Z,59.60
2018-03-29T11:20:32.468Z,61.10
2018-03-29T11:22:35.105Z,59.30
2018-03-29T11:24:37.687Z,59.50
2018-03-29T11:26:41.045Z,59.40
2018-03-29T11:28:43.698Z,58.90
2018-03-29T11:30:46.299Z,60.00
2018-03-29T11:32:48.918Z,60.30
2018-03-29T11:34:51.499Z,58.00
2018-03-29T11:36:54.101Z,57.20
2018-03-29T11:38:56.740Z,58.00
2018-03-29T11:41:00.095Z,61.60
2018-03-29T11:43:02.689Z,61.50
2018-03-29T11:45:05.299Z,64.90
2018-03-29T11:47:07.898Z,61.40
2018-03-29T11:49:10.623Z,60.20
2018-03-29T11:51:13.241Z,60.70
2018-03-29T11:53:15.821Z,60.40
2018-03-29T11:55:18.434Z,59.40
2018-03-29T11:57:21.018Z,60.70
2018-03-29T11:59:23.640Z,59.80
2018-03-29T12:01:26.217Z,60.70
2018-03-29T12:03:28.885Z,59.60
2018-03-29T12:05:31.492Z,58.60
2018-03-29T12:07:34.082Z,58.00
2018-03-29T12:09:36.953Z,62.60
2018-03-29T12:11:39.554Z,60.70
2018-03-29T12:13:42.944Z,60.90
2018-03-29T12:15:45.533Z,60.80
2018-03-29T12:17:48.895Z,62.20
2018-03-29T12:19:51.510Z,62.20
2018-03-29T12:21:54.122Z,59.50
2018-03-29T12:23:56.791Z,57.60
2018-03-29T12:25:59.398Z,58.10
2018-03-29T12:28:02.040Z,58.00
2018-03-29T12:30:04.650Z,56.10
2018-03-29T12:32:07.294Z,56.50
2018-03-29T12:34:10.649Z,56.50
2018-03-29T12:36:13.237Z,56.50
2018-03-29T12:38:16.630Z,56.30
2018-03-29T12:40:19.238Z,56.10
2018-03-29T12:42:21.849Z,53.70
2018-03-29T12:44:25.254Z,55.60
2018-03-29T12:46:27.856Z,55.40
2018-03-29T12:48:30.466Z,52.10
2018-03-29T12:50:33.134Z,52.50
2018-03-29T12:52:35.723Z,52.60
2018-03-29T12:54:50.150Z,52.90
2018-03-29T12:57:04.530Z,53.00
2018-03-29T12:59:07.134Z,53.50
2018-03-29T13:01:09.785Z,53.50
2018-03-29T13:03:12.382Z,53.10
2018-03-29T13:05:15.817Z,56.20
2018-03-29T13:07:18.398Z,56.00
2018-03-29T13:09:21.040Z,57.10
2018-03-29T13:11:23.677Z,56.90
2018-03-29T13:13:26.270Z,53.80
2018-03-29T13:15:28.933Z,53.80
2018-03-29T13:17:31.525Z,50.30
2018-03-29T13:19:34.121Z,50.90
2018-03-29T13:21:37.482Z,52.90
2018-03-29T13:23:40.840Z,55.70
2018-03-29T13:25:43.426Z,55.60
2018-03-29T13:27:46.071Z,56.70
2018-03-29T13:29:48.721Z,52.50
2018-03-29T13:31:52.074Z,53.10
2018-03-29T13:33:55.525Z,55.70
2018-03-29T13:35:58.113Z,55.70
2018-03-29T13:38:01.489Z,53.10
2018-03-29T13:40:04.884Z,53.70
2018-03-29T13:42:07.496Z,53.70
2018-03-29T13:44:10.996Z,52.20
2018-03-29T13:46:14.386Z,53.00
2018-03-29T13:48:17.794Z,55.20
2018-03-29T13:50:21.141Z,54.70
2018-03-29T13:52:23.797Z,54.60
2018-03-29T13:54:26.405Z,55.90
2018-03-29T13:56:29.023Z,55.80
2018-03-29T13:58:31.602Z,51.50
2018-03-29T14:00:34.214Z,50.00
2018-03-29T14:02:36.789Z,48.70
2018-03-29T14:04:39.492Z,49.90
2018-03-29T14:06:42.849Z,49.10
2018-03-29T14:08:45.449Z,49.00
2018-03-29T14:10:48.065Z,49.60
2018-03-29T14:12:50.658Z,50.40
2018-03-29T14:14:53.282Z,52.30
2018-03-29T14:16:55.869Z,52.80
2018-03-29T14:18:59.233Z,52.50
2018-03-29T14:21:01.855Z,52.40
2018-03-29T14:23:04.469Z,52.10
2018-03-29T14:25:07.100Z,54.60
2018-03-29T14:27:09.705Z,53.70
2018-03-29T14:29:12.305Z,52.60
2018-03-29T14:31:14.944Z,52.30
2018-03-29T14:33:17.542Z,52.30
2018-03-29T14:35:20.133Z,49.00
2018-03-29T14:37:22.745Z,48.60
2018-03-29T14:39:25.347Z,49.40
2018-03-29T14:41:27.991Z,48.00
2018-03-29T14:43:30.574Z,49.60
2018-03-29T14:45:33.203Z,48.70
2018-03-29T14:47:35.808Z,47.80
2018-03-29T14:49:39.169Z,47.70
2018-03-29T14:51:41.861Z,47.60
2018-03-29T14:53:44.498Z,49.30
2018-03-29T14:55:47.093Z,48.30
2018-03-29T14:57:49.705Z,50.30
2018-03-29T14:59:52.336Z,48.60
2018-03-29T15:01:54.929Z,48.80
2018-03-29T15:03:57.582Z,47.80
2018-03-29T15:06:00.170Z,47.60
2018-03-29T15:08:02.815Z,47.60
2018-03-29T15:10:06.153Z,48.00
2018-03-29T15:12:09.526Z,47.70
2018-03-29T15:14:12.135Z,47.60
2018-03-29T15:16:14.747Z,46.40
2018-03-29T15:18:17.342Z,45.30
2018-03-29T15:20:19.947Z,47.50
2018-03-29T15:22:22.646Z,45.90
2018-03-29T15:24:25.269Z,46.00
2018-03-29T15:26:27.897Z,46.10
2018-03-29T15:28:31.243Z,46.30
2018-03-29T15:30:33.896Z,46.30
2018-03-29T15:32:36.484Z,45.90
2018-03-29T15:34:39.115Z,45.40
2018-03-29T15:36:41.722Z,45.40
2018-03-29T15:38:44.362Z,47.10
2018-03-29T15:40:46.985Z,48.70
2018-03-29T15:42:49.643Z,47.60
2018-03-29T15:44:52.225Z,46.30
2018-03-29T15:46:54.834Z,46.70
2018-03-29T15:48:58.216Z,47.60
2018-03-29T15:51:01.573Z,47.50
2018-03-29T15:53:04.197Z,46.80
2018-03-29T15:55:07.548Z,47.60
2018-03-29T15:57:10.126Z,47.60
2018-03-29T15:59:12.762Z,46.70
2018-03-29T16:01:15.359Z,47.90
2018-03-29T16:03:18.000Z,49.40
2018-03-29T16:05:20.596Z,48.90
2018-03-29T16:07:23.288Z,51.00
2018-03-29T16:09:25.932Z,49.70
2018-03-29T16:11:28.537Z,49.30
2018-03-29T16:13:31.153Z,49.80
2018-03-29T16:15:34.547Z,48.40
2018-03-29T16:17:37.905Z,50.00
2018-03-29T16:19:40.570Z,50.00
2018-03-29T16:21:43.219Z,52.00
2018-03-29T16:23:45.862Z,51.50
2018-03-29T16:25:49.217Z,52.60
2018-03-29T16:27:51.861Z,52.60
2018-03-29T16:29:54.480Z,50.60
2018-03-29T16:31:57.093Z,51.70
2018-03-29T16:34:00.496Z,53.60
2018-03-29T16:36:03.090Z,53.50
2018-03-29T16:38:06.469Z,53.50
2018-03-29T16:40:09.866Z,53.80
2018-03-29T16:42:12.477Z,53.70
2018-03-29T16:44:15.360Z,54.50
2018-03-29T16:46:18.169Z,55.70
2018-03-29T16:48:21.553Z,55.90
2018-03-29T16:50:24.141Z,55.90
2018-03-29T16:52:27.519Z,56.50
2018-03-29T16:54:30.143Z,56.40
2018-03-29T16:56:32.777Z,56.80
2018-03-29T16:58:36.160Z,57.70
2018-03-29T17:00:38.742Z,57.60
2018-03-29T17:02:42.161Z,55.30
2018-03-29T17:04:44.742Z,56.20
2018-03-29T17:06:47.358Z,56.90
2018-03-29T17:08:50.101Z,56.50
2018-03-29T17:10:52.713Z,57.50
2018-03-29T17:12:55.339Z,56.90
2018-03-29T17:14:57.953Z,56.80
2018-03-29T17:17:00.564Z,58.00
2018-03-29T17:19:03.930Z,58.40
2018-03-29T17:21:06.538Z,58.40
2018-03-29T17:23:09.920Z,59.00
2018-03-29T17:25:12.573Z,58.90
2018-03-29T17:27:15.197Z,60.20
2018-03-29T17:29:17.810Z,61.80
2018-03-29T17:31:20.415Z,61.60
2018-03-29T17:33:23.009Z,62.10
2018-03-29T17:35:26.369Z,61.00
2018-03-29T17:37:28.989Z,60.90
2018-03-29T17:39:31.585Z,61.90
2018-03-29T17:41:34.181Z,60.80
2018-03-29T17:43:36.818Z,62.10
2018-03-29T17:45:39.401Z,62.10
2018-03-29T17:47:41.989Z,63.00
2018-03-29T17:49:44.699Z,62.80
2018-03-29T17:51:47.309Z,61.90
2018-03-29T17:53:49.909Z,62.80
2018-03-29T17:55:52.560Z,64.50
2018-03-29T17:57:55.261Z,63.20
2018-03-29T17:59:57.873Z,63.30
2018-03-29T18:02:00.460Z,63.00
2018-03-29T18:04:03.840Z,66.00
2018-03-29T18:06:06.798Z,65.90
2018-03-29T18:08:09.417Z,68.10
2018-03-29T18:10:12.839Z,68.40
2018-03-29T18:12:15.481Z,68.40
2018-03-29T18:14:18.845Z,70.70
2018-03-29T18:16:21.455Z,70.70
2018-03-29T18:18:24.083Z,67.50
2018-03-29T18:20:26.676Z,66.60
2018-03-29T18:22:29.280Z,68.90
2018-03-29T18:24:31.881Z,68.90
2018-03-29T18:26:34.784Z,70.90
2018-03-29T18:28:37.374Z,69.50
2018-03-29T18:30:39.966Z,70.40
2018-03-29T18:32:42.645Z,71.90
2018-03-29T18:34:45.338Z,69.20
2018-03-29T18:36:47.946Z,69.20
2018-03-29T18:38:50.554Z,69.20
2018-03-29T18:40:53.170Z,70.60
2018-03-29T18:42:55.886Z,73.40
2018-03-29T18:44:58.495Z,71.70
2018-03-29T18:47:01.869Z,73.00
2018-03-29T18:49:04.457Z,73.00
2018-03-29T18:51:07.066Z,74.20
2018-03-29T18:53:09.698Z,71.70
2018-03-29T18:55:12.400Z,73.60
2018-03-29T18:57:15.753Z,74.20
2018-03-29T18:59:18.345Z,74.20
2018-03-29T19:01:21.066Z,75.50
2018-03-29T19:03:23.770Z,77.00
2018-03-29T19:05:26.387Z,76.40
2018-03-29T19:07:29.754Z,78.30
2018-03-29T19:09:32.399Z,78.40
2018-03-29T19:11:35.044Z,78.50
2018-03-29T19:13:37.671Z,79.90
2018-03-29T19:15:40.322Z,80.10
2018-03-29T19:17:43.046Z,80.60
2018-03-29T19:19:46.501Z,82.90
2018-03-29T19:21:49.098Z,82.40
2018-03-29T19:23:51.689Z,82.70
2018-03-29T19:25:54.333Z,82.40
2018-03-29T19:27:56.961Z,82.30
2018-03-29T19:30:00.411Z,83.60
2018-03-29T19:32:03.811Z,84.00
2018-03-29T19:34:06.429Z,82.90
2018-03-29T19:36:09.108Z,84.10
2018-03-29T19:38:11.713Z,83.90
2018-03-29T19:40:14.315Z,84.50
2018-03-29T19:42:16.952Z,84.70
2018-03-29T19:44:19.549Z,85.00
2018-03-29T19:46:22.187Z,84.90
2018-03-29T19:48:24.801Z,84.70
2018-03-29T19:50:27.419Z,84.00
2018-03-29T19:52:30.044Z,83.50
2018-03-29T19:54:32.641Z,82.60
2018-03-29T19:56:35.291Z,83.60
2018-03-29T19:58:37.916Z,83.90
2018-03-29T20:00:40.588Z,84.30
2018-03-29T20:02:43.973Z,84.00
2018-03-29T20:04:47.354Z,85.70
2018-03-29T20:06:49.962Z,85.60
2018-03-29T20:08:52.554Z,85.30
2018-03-29T20:10:55.160Z,86.00
2018-03-29T20:12:57.781Z,86.10
2018-03-29T20:15:00.366Z,87.40
2018-03-29T20:17:03.027Z,87.30
2018-03-29T20:19:05.638Z,87.00
2018-03-29T20:21:08.234Z,87.20
2018-03-29T20:23:10.825Z,87.80
2018-03-29T20:25:13.431Z,88.10
2018-03-29T20:27:16.037Z,88.50
2018-03-29T20:29:18.656Z,88.50
2018-03-29T20:31:22.108Z,88.20
2018-03-29T20:33:24.737Z,88.10
2018-03-29T20:35:28.111Z,88.60
2018-03-29T20:37:30.734Z,88.50
2018-03-29T20:39:33.353Z,88.40
2018-03-29T20:41:35.961Z,88.60
2018-03-29T20:43:38.589Z,88.50
2018-03-29T20:45:41.231Z,88.80
2018-03-29T20:47:43.829Z,88.90
2018-03-29T20:49:46.417Z,88.60
2018-03-29T20:51:49.010Z,88.60
2018-03-29T20:53:52.390Z,88.80
2018-03-29T20:55:55.034Z,89.10
2018-03-29T20:57:57.631Z,89.80
2018-03-29T21:00:00.230Z,89.70
2018-03-29T21:02:03.632Z,90.20
2018-03-29T21:04:07.008Z,90.30
2018-03-29T21:06:10.390Z,90.30
2018-03-29T21:08:12.978Z,90.10
2018-03-29T21:10:15.582Z,90.10
2018-03-29T21:12:18.194Z,90.20
2018-03-29T21:14:21.088Z,90.20
2018-03-29T21:16:23.789Z,90.30
2018-03-29T21:18:26.343Z,90.40
2018-03-29T21:20:30.444Z,90.50
2018-03-29T21:22:33.061Z,90.50
2018-03-29T21:24:36.420Z,90.50
2018-03-29T21:26:39.126Z,90.50
2018-03-29T21:28:41.753Z,90.50
2018-03-29T21:30:44.357Z,90.50
2018-03-29T21:32:47.742Z,90.80
2018-03-29T21:34:50.346Z,90.70
2018-03-29T21:36:53.768Z,90.70
2018-03-29T21:38:56.518Z,90.70
2018-03-29T21:40:59.121Z,90.80
2018-03-29T21:43:01.739Z,91.10
2018-03-29T21:45:04.394Z,91.20
2018-03-29T21:47:06.995Z,91.10
2018-03-29T21:49:10.357Z,91.60
2018-03-29T21:51:13.256Z,91.40
2018-03-29T21:53:15.841Z,91.30
2018-03-29T21:55:18.539Z,91.30
2018-03-29T21:57:21.883Z,91.20
2018-03-29T21:59:24.484Z,91.20
2018-03-29T22:01:27.113Z,91.60
2018-03-29T22:03:29.710Z,92.00
2018-03-29T22:05:32.319Z,91.90
2018-03-29T22:07:35.673Z,91.60
2018-03-29T22:09:38.271Z,91.60
2018-03-29T22:11:40.880Z,91.60
2018-03-29T22:13:50.201Z,91.80
2018-03-29T22:15:53.574Z,92.00
2018-03-29T22:17:56.166Z,92.00
2018-03-29T22:19:58.767Z,91.80
2018-03-29T22:22:01.391Z,91.80
2018-03-29T22:24:04.115Z,91.70
2018-03-29T22:26:06.820Z,91.70
2018-03-29T22:28:09.414Z,91.60
2018-03-29T22:30:12.010Z,91.70
2018-03-29T22:32:15.417Z,91.80
2018-03-29T22:34:18.139Z,92.00
2018-03-29T22:36:20.751Z,91.90
2018-03-29T22:38:24.134Z,91.60
2018-03-29T22:40:27.496Z,91.40
2018-03-29T22:42:30.101Z,91.40
2018-03-29T22:44:33.457Z,91.10
2018-03-29T22:46:36.802Z,91.20
2018-03-29T22:48:40.186Z,91.40
2018-03-29T22:50:43.571Z,91.50
2018-03-29T22:52:46.998Z,91.50
2018-03-29T22:54:49.617Z,91.50
2018-03-29T22:56:53.836Z,91.80
2018-03-29T22:58:56.486Z,91.80
2018-03-29T23:00:59.079Z,91.80
2018-03-29T23:03:01.706Z,92.30
2018-03-29T23:05:04.437Z,92.40
2018-03-29T23:07:07.028Z,92.10
2018-03-29T23:09:10.414Z,92.50
2018-03-29T23:11:13.009Z,92.30
2018-03-29T23:13:16.353Z,92.20
2018-03-29T23:15:19.721Z,91.90
2018-03-29T23:17:22.312Z,91.90
2018-03-29T23:19:24.914Z,92.00
2018-03-29T23:21:27.522Z,92.00
2018-03-29T23:23:30.101Z,92.10
2018-03-29T23:25:32.729Z,91.70
2018-03-29T23:27:35.374Z,91.80
2018-03-29T23:29:37.977Z,91.90
2018-03-29T23:31:40.580Z,92.10
2018-03-29T23:33:43.949Z,92.50
2018-03-29T23:35:46.566Z,92.50
2018-03-29T23:37:49.178Z,92.50
2018-03-29T23:39:51.789Z,92.30
2018-03-29T23:41:54.469Z,92.20
2018-03-29T23:43:57.821Z,92.30
2018-03-29T23:46:00.472Z,92.20
2018-03-29T23:48:03.065Z,92.10
2018-03-29T23:50:05.674Z,92.00
2018-03-29T23:52:08.302Z,92.00
2018-03-29T23:54:10.909Z,91.80
2018-03-29T23:56:13.513Z,91.80
2018-03-29T23:58:17.762Z,92.40
